createdAt,value
2023-01-19T00:01:41.670Z,96737.69
2023-01-19T00:05:44.449Z,96731.69
2023-01-19T00:09:46.518Z,96733.34
2023-01-19T00:13:51.812Z,96736.75
2023-01-19T00:17:53.836Z,96730.06
2023-01-19T00:21:56.079Z,96734.38
2023-01-19T00:25:58.157Z,96719.94
2023-01-19T00:30:00.223Z,96737.19
2023-01-19T00:34:03.179Z,96738.84
2023-01-19T00:38:05.235Z,96747.38
2023-01-19T00:42:27.384Z,96747.31
2023-01-19T00:46:29.378Z,96739.69
2023-01-19T00:50:32.468Z,96748.25
2023-01-19T00:54:34.505Z,96747.56
2023-01-19T00:58:36.520Z,96742.50
2023-01-19T01:02:40.103Z,96750.25
2023-01-19T01:06:42.226Z,96754.56
2023-01-19T01:10:44.243Z,96759.75
2023-01-19T01:14:46.288Z,96752.00
2023-01-19T01:18:48.271Z,96766.47
2023-01-19T01:22:52.315Z,96768.97
2023-01-19T01:26:54.361Z,96762.13
2023-01-19T01:30:57.065Z,96771.47
2023-01-19T01:34:59.339Z,96764.56
2023-01-19T01:39:01.413Z,96763.69
2023-01-19T01:43:03.610Z,96765.44
2023-01-19T01:47:05.670Z,96758.56
2023-01-19T01:51:24.894Z,96770.56
2023-01-19T01:55:29.207Z,96769.75
2023-01-19T01:59:39.036Z,96794.53
2023-01-19T02:03:41.396Z,96792.75
2023-01-19T02:08:12.115Z,96799.41
2023-01-19T02:12:33.311Z,96799.22
2023-01-19T02:16:37.486Z,96786.28
2023-01-19T02:20:42.795Z,96769.03
2023-01-19T02:24:45.000Z,96763.75
2023-01-19T02:28:53.296Z,96767.97
2023-01-19T02:32:55.421Z,96755.94
2023-01-19T02:37:03.349Z,96761.50
2023-01-19T02:41:07.623Z,96754.72
2023-01-19T02:45:12.648Z,96754.75
2023-01-19T02:49:14.761Z,96752.22
2023-01-19T02:53:57.775Z,96757.34
2023-01-19T02:58:04.340Z,96751.38
2023-01-19T03:02:28.815Z,96748.88
2023-01-19T03:06:57.138Z,96754.03
2023-01-19T03:11:03.750Z,96760.03
2023-01-19T03:15:17.479Z,96759.25
2023-01-19T03:19:29.628Z,96753.22
2023-01-19T03:23:35.020Z,96754.09
2023-01-19T03:27:41.167Z,96744.59
2023-01-19T03:31:46.029Z,96748.81
2023-01-19T03:35:53.027Z,96752.16
2023-01-19T03:39:55.859Z,96753.78
2023-01-19T03:43:59.003Z,96749.44
2023-01-19T03:48:01.487Z,96752.91
2023-01-19T03:52:04.443Z,96752.84
2023-01-19T03:56:11.777Z,96756.25
2023-01-19T04:00:14.475Z,96752.78
2023-01-19T04:04:16.803Z,96760.41
2023-01-19T04:08:19.287Z,96772.50
2023-01-19T04:12:21.309Z,96770.28
2023-01-19T04:16:23.534Z,96756.06
2023-01-19T04:20:27.240Z,96752.03
2023-01-19T04:24:29.269Z,96750.41
2023-01-19T04:28:32.426Z,96759.09
2023-01-19T04:32:34.469Z,96755.81
2023-01-19T04:36:36.529Z,96758.50
2023-01-19T04:40:38.776Z,96754.22
2023-01-19T04:44:40.802Z,96760.22
2023-01-19T04:48:42.850Z,96759.41
2023-01-19T04:52:46.027Z,96764.56
2023-01-19T04:56:48.879Z,96769.81
2023-01-19T05:00:52.196Z,96766.47
2023-01-19T05:04:54.407Z,96776.78
2023-01-19T05:08:56.413Z,96774.22
2023-01-19T05:12:58.809Z,96787.06
2023-01-19T05:17:03.137Z,96778.44
2023-01-19T05:21:06.165Z,96780.16
2023-01-19T05:25:08.785Z,96782.78
2023-01-19T05:29:10.823Z,96784.44
2023-01-19T05:33:12.855Z,96788.72
2023-01-19T05:37:15.175Z,96795.44
2023-01-19T05:41:17.755Z,96794.34
2023-01-19T05:45:19.793Z,96793.34
2023-01-19T05:49:21.853Z,96793.91
2023-01-19T05:53:23.902Z,96806.72
2023-01-19T05:57:25.897Z,96804.28
2023-01-19T06:01:28.352Z,96815.69
2023-01-19T06:05:30.449Z,96817.50
2023-01-19T06:09:33.313Z,96823.50
2023-01-19T06:13:35.454Z,96820.84
2023-01-19T06:17:37.554Z,96830.28
2023-01-19T06:21:39.618Z,96831.13
2023-01-19T06:25:41.619Z,96837.06
2023-01-19T06:29:43.633Z,96840.44
2023-01-19T06:33:45.729Z,96844.66
2023-01-19T06:37:47.897Z,96840.28
2023-01-19T06:41:50.217Z,96847.00
2023-01-19T06:45:52.748Z,96850.47
2023-01-19T06:49:54.850Z,96850.63
2023-01-19T06:53:57.295Z,96861.00
2023-01-19T06:57:59.661Z,96863.59
2023-01-19T07:02:26.113Z,96865.22
2023-01-19T07:06:24.076Z,96861.84
2023-01-19T07:10:26.080Z,96854.22
2023-01-19T07:14:49.435Z,96855.16
2023-01-19T07:18:51.589Z,96855.28
2023-01-19T07:22:56.996Z,96846.69
2023-01-19T07:26:59.713Z,96837.84
2023-01-19T07:31:01.855Z,96834.41
2023-01-19T07:35:04.692Z,96842.56
2023-01-19T07:39:06.726Z,96849.75
2023-01-19T07:43:08.885Z,96849.63
2023-01-19T07:47:12.597Z,96847.63
2023-01-19T07:51:18.681Z,96846.47
2023-01-19T07:55:21.647Z,96859.06
2023-01-19T07:59:23.704Z,96846.91
2023-01-19T08:03:25.746Z,96851.06
2023-01-19T08:07:27.776Z,96855.25
2023-01-19T08:11:29.812Z,96861.16
2023-01-19T08:15:31.889Z,96855.03
2023-01-19T08:19:34.079Z,96855.03
2023-01-19T08:23:36.135Z,96861.91
2023-01-19T08:27:38.263Z,96860.03
2023-01-19T08:31:40.328Z,96866.56
2023-01-19T08:35:47.205Z,96866.22
2023-01-19T08:39:49.241Z,96871.94
2023-01-19T08:43:51.347Z,96882.94
2023-01-19T08:47:55.982Z,96882.50
2023-01-19T08:51:57.991Z,96885.59
2023-01-19T08:56:01.210Z,96886.84
2023-01-19T09:00:04.435Z,96905.31
2023-01-19T09:04:06.541Z,96891.50
2023-01-19T09:08:13.910Z,96903.44
2023-01-19T09:12:16.518Z,96909.22
2023-01-19T09:16:18.518Z,96908.38
2023-01-19T09:20:20.670Z,96909.31
2023-01-19T09:24:22.708Z,96913.72
2023-01-19T09:28:25.354Z,96918.66
2023-01-19T09:32:27.378Z,96915.06
2023-01-19T09:36:30.081Z,96915.72
2023-01-19T09:40:32.163Z,96914.75
2023-01-19T09:44:35.508Z,96920.66
2023-01-19T09:48:58.609Z,96931.13
2023-01-19T09:53:13.930Z,96932.94
2023-01-19T09:57:16.150Z,96930.34
2023-01-19T10:01:24.449Z,96936.25
2023-01-19T10:05:45.145Z,96937.03
2023-01-19T10:10:19.790Z,96935.06
2023-01-19T10:14:48.392Z,96935.78
2023-01-19T10:18:54.765Z,96940.09
2023-01-19T10:22:59.072Z,96930.78
2023-01-19T10:27:01.842Z,96938.56
2023-01-19T10:31:06.260Z,96928.00
2023-01-19T10:35:24.645Z,96936.16
2023-01-19T10:39:26.873Z,96927.28
2023-01-19T10:43:36.463Z,96932.47
2023-01-19T10:47:40.037Z,96919.53
2023-01-19T10:51:48.892Z,96926.44
2023-01-19T10:56:11.089Z,96923.44
2023-01-19T11:00:30.999Z,96915.69
2023-01-19T11:04:33.176Z,96920.28
2023-01-19T11:08:35.166Z,96921.69
2023-01-19T11:12:42.648Z,96925.16
2023-01-19T11:16:56.768Z,96927.13
2023-01-19T11:21:06.401Z,96929.72
2023-01-19T11:25:25.886Z,96930.59
2023-01-19T11:29:27.929Z,96919.09
2023-01-19T11:33:36.388Z,96931.56
2023-01-19T11:37:39.564Z,96932.56
2023-01-19T11:41:41.868Z,96924.56
2023-01-19T11:45:45.712Z,96931.84
2023-01-19T11:50:04.608Z,96930.16
2023-01-19T11:54:19.742Z,96935.44
2023-01-19T11:58:22.965Z,96923.88
2023-01-19T12:02:46.803Z,96924.41
2023-01-19T12:06:55.205Z,96928.91
2023-01-19T12:11:00.166Z,96927.28
2023-01-19T12:15:15.092Z,96918.81
2023-01-19T12:19:21.234Z,96923.53
2023-01-19T12:23:45.367Z,96933.16
2023-01-19T12:27:49.405Z,96928.75
2023-01-19T12:32:14.651Z,96927.06
2023-01-19T12:36:16.619Z,96930.78
2023-01-19T12:40:28.985Z,96929.63
2023-01-19T12:44:34.155Z,96923.53
2023-01-19T12:48:41.947Z,96925.25
2023-01-19T12:52:57.220Z,96933.69
2023-01-19T12:57:06.053Z,96933.31
2023-01-19T13:01:21.178Z,96939.25
2023-01-19T13:05:33.261Z,96921.69
2023-01-19T13:09:37.913Z,96938.22
2023-01-19T13:14:06.234Z,96929.00
2023-01-19T13:18:09.324Z,96938.50
2023-01-19T13:23:12.954Z,96933.19
2023-01-19T13:27:15.254Z,96937.19
2023-01-19T13:31:18.730Z,96933.59
2023-01-19T13:35:22.313Z,96933.09
2023-01-19T13:39:27.743Z,96929.31
2023-01-19T13:43:36.516Z,96939.03
2023-01-19T13:47:45.205Z,96949.72
2023-01-19T13:52:14.191Z,96946.97
2023-01-19T13:56:21.982Z,96960.16
2023-01-19T14:00:29.204Z,96952.63
2023-01-19T14:04:32.300Z,96957.94
2023-01-19T14:08:34.285Z,96962.25
2023-01-19T14:12:43.523Z,96962.28
2023-01-19T14:16:50.523Z,96959.13
2023-01-19T14:20:53.602Z,96964.47
2023-01-19T14:24:55.577Z,96960.41
2023-01-19T14:28:57.719Z,96970.03
2023-01-19T14:32:59.705Z,96969.06
2023-01-19T14:37:04.045Z,96980.50
2023-01-19T14:41:06.305Z,96980.56
2023-01-19T14:45:17.488Z,96985.75
2023-01-19T14:49:26.626Z,96996.91
2023-01-19T14:53:30.038Z,96998.75
2023-01-19T14:57:35.384Z,97002.38
2023-01-19T15:01:37.665Z,97003.19
2023-01-19T15:05:42.810Z,97007.25
2023-01-19T15:09:47.023Z,97014.91
2023-01-19T15:13:49.933Z,97010.03
2023-01-19T15:17:54.170Z,97014.50
2023-01-19T15:21:58.200Z,97020.66
2023-01-19T15:26:02.103Z,97014.63
2023-01-19T15:30:13.012Z,97019.91
2023-01-19T15:34:15.139Z,97021.69
2023-01-19T15:38:17.319Z,97027.00
2023-01-19T15:42:19.318Z,97028.78
2023-01-19T15:46:22.532Z,97030.50
2023-01-19T15:50:25.905Z,97033.97
2023-01-19T15:54:27.922Z,97039.25
2023-01-19T15:58:29.908Z,97041.81
2023-01-19T16:02:35.341Z,97033.06
2023-01-19T16:06:37.818Z,97041.69
2023-01-19T16:10:41.746Z,97045.91
2023-01-19T16:14:43.780Z,97047.50
2023-01-19T16:18:46.180Z,97050.84
2023-01-19T16:22:48.233Z,97053.53
2023-01-19T16:26:50.284Z,97050.09
2023-01-19T16:30:52.686Z,97064.72
2023-01-19T16:34:54.879Z,97057.56
2023-01-19T16:39:06.147Z,97067.97
2023-01-19T16:43:08.194Z,97067.78
2023-01-19T16:47:10.260Z,97066.09
2023-01-19T16:51:12.258Z,97072.34
2023-01-19T16:55:14.308Z,97075.84
2023-01-19T16:59:17.422Z,97074.22
2023-01-19T17:03:19.467Z,97082.78
2023-01-19T17:07:21.484Z,97083.81
2023-01-19T17:11:29.349Z,97091.69
2023-01-19T17:15:31.528Z,97090.16
2023-01-19T17:19:33.547Z,97089.50
2023-01-19T17:23:37.431Z,97086.09
2023-01-19T17:27:39.440Z,97085.97
2023-01-19T17:31:41.542Z,97085.84
2023-01-19T17:35:43.663Z,97090.06
2023-01-19T17:39:46.629Z,97088.28
2023-01-19T17:43:50.278Z,97103.09
2023-01-19T17:47:52.276Z,97099.63
2023-01-19T17:51:55.662Z,97103.06
2023-01-19T17:56:05.081Z,97103.06
2023-01-19T18:00:08.160Z,97104.69
2023-01-19T18:04:16.168Z,97111.91
2023-01-19T18:08:18.171Z,97123.16
2023-01-19T18:12:20.315Z,97117.22
2023-01-19T18:16:25.427Z,97123.28
2023-01-19T18:20:27.467Z,97120.78
2023-01-19T18:24:29.552Z,97127.72
2023-01-19T18:28:32.057Z,97122.03
2023-01-19T18:32:58.372Z,97127.53
2023-01-19T18:37:00.459Z,97127.75
2023-01-19T18:41:05.029Z,97133.00
2023-01-19T18:45:07.602Z,97129.53
2023-01-19T18:49:10.067Z,97139.25
2023-01-19T18:53:12.152Z,97131.81
2023-01-19T18:57:14.492Z,97138.09
2023-01-19T19:01:18.819Z,97140.97
2023-01-19T19:05:21.329Z,97139.53
2023-01-19T19:09:23.425Z,97135.44
2023-01-19T19:13:25.483Z,97142.56
2023-01-19T19:17:27.467Z,97135.09
2023-01-19T19:21:29.530Z,97134.38
2023-01-19T19:25:32.601Z,97144.78
2023-01-19T19:29:35.068Z,97138.84
2023-01-19T19:33:38.145Z,97142.34
2023-01-19T19:37:40.094Z,97148.34
2023-01-19T19:41:42.517Z,97152.69
2023-01-19T19:45:44.789Z,97154.66
2023-01-19T19:49:46.772Z,97150.59
2023-01-19T19:53:51.474Z,97160.16
2023-01-19T19:57:54.762Z,97157.59
2023-01-19T20:01:56.883Z,97163.72
2023-01-19T20:06:07.402Z,97168.91
2023-01-19T20:10:10.280Z,97160.31
2023-01-19T20:14:14.135Z,97167.28
2023-01-19T20:18:16.292Z,97169.03
2023-01-19T20:22:18.357Z,97173.44
2023-01-19T20:26:26.669Z,97183.00
2023-01-19T20:30:28.855Z,97186.53
2023-01-19T20:36:32.579Z,97188.34
2023-01-19T20:40:34.756Z,97194.50
2023-01-19T20:44:37.312Z,97187.81
2023-01-19T20:48:39.619Z,97193.94
2023-01-19T20:52:41.600Z,97194.78
2023-01-19T20:56:43.808Z,97197.34
2023-01-19T21:00:45.922Z,97201.63
2023-01-19T21:04:48.056Z,97206.91
2023-01-19T21:08:50.164Z,97209.53
2023-01-19T21:12:52.262Z,97210.47
2023-01-19T21:16:58.211Z,97215.72
2023-01-19T21:21:00.278Z,97223.56
2023-01-19T21:25:02.291Z,97225.47
2023-01-19T21:29:04.542Z,97228.19
2023-01-19T21:33:07.712Z,97226.44
2023-01-19T21:37:09.908Z,97237.56
2023-01-19T21:41:12.662Z,97239.25
2023-01-19T21:45:15.095Z,97239.25
2023-01-19T21:49:19.678Z,97238.31
2023-01-19T21:53:21.655Z,97243.47
2023-01-19T21:57:23.711Z,97237.50
2023-01-19T22:01:25.878Z,97249.53
2023-01-19T22:05:28.011Z,97245.47
2023-01-19T22:09:30.089Z,97249.91
2023-01-19T22:13:33.339Z,97265.41
2023-01-19T22:17:36.096Z,97264.59
2023-01-19T22:21:38.112Z,97274.03
2023-01-19T22:25:40.118Z,97273.19
2023-01-19T22:29:42.427Z,97278.38
2023-01-19T22:33:44.915Z,97279.34
2023-01-19T22:37:46.958Z,97281.16
2023-01-19T22:41:48.998Z,97288.94
2023-01-19T22:45:51.014Z,97290.72
2023-01-19T22:49:53.053Z,97293.34
2023-01-19T22:53:55.280Z,97290.00
2023-01-19T22:57:57.308Z,97286.56
2023-01-19T23:01:59.405Z,97293.41
2023-01-19T23:06:10.668Z,97293.41
2023-01-19T23:10:12.834Z,97299.38
2023-01-19T23:14:17.973Z,97300.19
2023-01-19T23:18:19.996Z,97302.78
2023-01-19T23:22:22.033Z,97303.66
2023-01-19T23:26:25.042Z,97308.81
2023-01-19T23:30:27.107Z,97314.84
2023-01-19T23:34:29.125Z,97318.25
2023-01-19T23:38:31.164Z,97319.16
2023-01-19T23:42:33.191Z,97326.03
2023-01-19T23:46:35.523Z,97315.81
2023-01-19T23:50:40.661Z,97321.84
2023-01-19T23:54:42.701Z,97320.16
2023-01-19T23:58:46.443Z,97323.56
